Time;durP1;ratioP1;P1;durP2;ratioP2;P2;SDS_P1;SDS_P2;PMS_P1;PMS_P2;Temp;Humidity;BMP_temperature;BMP_pressure;BME280_temperature;BME280_humidity;BME280_pressure;Samples;Min_cycle;Max_cycle;Signal;HPM_P1;HPM_P2
2023/03/16 00:00:44;;;;;;;5.78;1.38;;;2.40;99.90;;;;;;4977197;28;20039;-63
2023/03/16 00:03:11;;;;;;;6.85;1.50;;;2.30;99.90;;;;;;4955531;28;20504;-62
2023/03/16 00:05:37;;;;;;;7.13;1.55;;;2.40;99.90;;;;;;4990923;28;20453;-62
2023/03/16 00:08:03;;;;;;;6.78;1.48;;;2.40;99.90;;;;;;5006450;28;21194;-63
2023/03/16 00:10:29;;;;;;;7.93;1.65;;;2.40;99.90;;;;;;4977794;28;20564;-62
2023/03/16 00:12:56;;;;;;;8.20;1.20;;;2.40;99.90;;;;;;4994373;28;20512;-61
2023/03/16 00:15:23;;;;;;;7.22;1.60;;;2.40;99.90;;;;;;4977325;28;20042;-63
2023/03/16 00:17:49;;;;;;;7.68;1.38;;;2.40;99.90;;;;;;4973486;28;20266;-63
2023/03/16 00:20:16;;;;;;;8.70;1.45;;;2.50;99.90;;;;;;4975706;28;20038;-63
2023/03/16 00:22:42;;;;;;;5.45;1.20;;;2.50;99.90;;;;;;4957939;28;20408;-63
2023/03/16 00:25:10;;;;;;;6.05;1.63;;;2.50;99.90;;;;;;4989941;28;20481;-64
2023/03/16 00:27:36;;;;;;;7.32;2.00;;;2.50;99.90;;;;;;4990659;28;20045;-64
2023/03/16 00:30:02;;;;;;;4.10;1.27;;;2.50;99.90;;;;;;4972853;28;20682;-65
2023/03/16 00:32:32;;;;;;;6.28;1.58;;;2.50;99.90;;;;;;4958308;28;20232;-64
2023/03/16 00:34:58;;;;;;;5.40;2.00;;;2.50;99.90;;;;;;4975934;28;20131;-64
2023/03/16 00:37:25;;;;;;;5.20;1.70;;;2.40;99.90;;;;;;4974994;28;20038;-64
2023/03/16 00:39:54;;;;;;;7.20;1.75;;;2.40;99.90;;;;;;4989330;28;20157;-64
2023/03/16 00:42:26;;;;;;;10.65;1.92;;;2.40;99.90;;;;;;4989828;28;20313;-64
2023/03/16 00:44:56;;;;;;;7.63;1.83;;;2.40;99.90;;;;;;4989261;28;20408;-65
2023/03/16 00:47:31;;;;;;;4.93;1.63;;;2.40;99.90;;;;;;5006071;28;20364;-64
2023/03/16 00:49:58;;;;;;;8.63;1.90;;;2.40;99.90;;;;;;5005886;28;20865;-64
2023/03/16 00:52:26;;;;;;;7.80;1.45;;;2.40;99.90;;;;;;4991065;28;20551;-64
2023/03/16 00:54:52;;;;;;;7.50;1.80;;;2.40;99.90;;;;;;4959093;28;20531;-64
2023/03/16 00:57:20;;;;;;;8.32;1.75;;;2.40;99.90;;;;;;4991266;28;20047;-64
2023/03/16 00:59:47;;;;;;;4.07;1.38;;;2.40;99.90;;;;;;4971903;28;20041;-65
2023/03/16 01:02:14;;;;;;;4.07;1.25;;;2.40;99.90;;;;;;4991650;28;20038;-63
2023/03/16 01:04:40;;;;;;;9.00;1.50;;;2.40;99.90;;;;;;4973101;28;20485;-64
2023/03/16 01:07:07;;;;;;;6.32;1.50;;;2.40;99.90;;;;;;4974345;28;20046;-64
2023/03/16 01:09:36;;;;;;;4.05;1.42;;;2.40;99.90;;;;;;4975426;28;20346;-64
2023/03/16 01:12:10;;;;;;;7.25;1.52;;;2.40;99.90;;;;;;4942779;28;20536;-64
2023/03/16 01:14:36;;;;;;;6.43;1.40;;;2.40;99.90;;;;;;4993119;28;20453;-64
2023/03/16 01:17:03;;;;;;;7.82;1.48;;;2.40;99.90;;;;;;4978193;28;20258;-64
2023/03/16 01:19:32;;;;;;;7.35;1.70;;;2.40;99.90;;;;;;4962768;28;20536;-62
2023/03/16 01:21:58;;;;;;;4.75;1.45;;;2.40;99.90;;;;;;4996580;28;20508;-65
2023/03/16 01:24:24;;;;;;;5.97;1.45;;;2.50;99.90;;;;;;4994214;28;20579;-63
2023/03/16 01:26:50;;;;;;;9.20;1.85;;;2.50;99.90;;;;;;5009174;28;20042;-64
2023/03/16 01:29:15;;;;;;;7.03;1.27;;;2.50;99.90;;;;;;4976829;28;20141;-62
2023/03/16 01:31:41;;;;;;;3.72;1.30;;;2.50;99.90;;;;;;4976992;28;20041;-63
2023/03/16 01:34:07;;;;;;;5.55;1.23;;;2.50;99.90;;;;;;4976685;28;20500;-63
2023/03/16 01:36:32;;;;;;;5.57;1.58;;;2.50;99.90;;;;;;4993538;28;20136;-62
2023/03/16 01:38:59;;;;;;;7.80;1.98;;;2.60;99.90;;;;;;4980288;28;20054;-63
2023/03/16 01:41:26;;;;;;;6.97;1.40;;;2.60;99.90;;;;;;4976400;28;20065;-64
2023/03/16 01:43:57;;;;;;;7.13;1.48;;;2.70;99.90;;;;;;4996498;28;20178;-64
2023/03/16 01:46:27;;;;;;;5.00;1.25;;;2.70;99.90;;;;;;4991507;28;20042;-64
2023/03/16 01:48:55;;;;;;;7.30;1.75;;;2.70;99.90;;;;;;4978626;28;20038;-63
2023/03/16 01:51:44;;;;;;;5.05;1.52;;;2.80;99.90;;;;;;4977472;28;20065;-64
2023/03/16 01:54:24;;;;;;;6.45;1.90;;;2.80;99.90;;;;;;5008947;28;20050;-64
2023/03/16 01:56:54;;;;;;;8.40;1.95;;;2.80;99.90;;;;;;4978260;28;20251;-63
2023/03/16 01:59:23;;;;;;;6.38;1.98;;;2.90;99.90;;;;;;4990700;28;20532;-63
2023/03/16 02:01:50;;;;;;;5.40;1.52;;;2.90;99.90;;;;;;4992028;28;20058;-64
2023/03/16 02:04:50;;;;;;;7.05;1.63;;;2.90;99.90;;;;;;4975499;28;20266;-63
2023/03/16 02:07:19;;;;;;;7.75;1.80;;;2.90;99.90;;;;;;4990794;28;20096;-63
2023/03/16 02:09:49;;;;;;;6.80;1.65;;;2.90;99.90;;;;;;4992852;28;20031;-63
2023/03/16 02:12:17;;;;;;;4.63;1.40;;;2.90;99.90;;;;;;4992279;28;20050;-63
2023/03/16 02:14:48;;;;;;;6.40;2.10;;;2.90;99.90;;;;;;5007715;28;20096;-64
2023/03/16 02:17:18;;;;;;;5.22;2.05;;;2.90;99.90;;;;;;4993720;28;20045;-64
2023/03/16 02:20:12;;;;;;;10.23;2.10;;;2.90;99.90;;;;;;4974816;28;20042;-65
2023/03/16 02:22:47;;;;;;;7.35;2.17;;;3.00;99.90;;;;;;4987562;28;20058;-63
2023/03/16 02:25:16;;;;;;;5.90;2.08;;;3.00;99.90;;;;;;4979729;28;20117;-64
2023/03/16 02:28:07;;;;;;;7.13;1.95;;;3.00;99.90;;;;;;5003641;28;20038;-64
2023/03/16 02:30:33;;;;;;;6.65;1.45;;;3.00;99.90;;;;;;5007775;28;20038;-63
2023/03/16 02:33:00;;;;;;;6.00;2.30;;;3.00;99.90;;;;;;4996772;28;20046;-65
2023/03/16 02:35:26;;;;;;;5.22;1.50;;;3.00;99.90;;;;;;4992011;28;20439;-62
2023/03/16 02:37:52;;;;;;;7.15;1.80;;;3.10;99.90;;;;;;4976371;28;20369;-63
2023/03/16 02:40:26;;;;;;;9.88;2.15;;;3.10;99.90;;;;;;4978447;28;20504;-62
2023/03/16 02:43:07;;;;;;;8.63;1.98;;;3.10;99.90;;;;;;4977541;28;20413;-62
2023/03/16 02:45:41;;;;;;;3.75;1.40;;;3.20;99.90;;;;;;4979569;28;20395;-62
2023/03/16 02:48:13;;;;;;;8.00;1.67;;;3.20;99.90;;;;;;4959766;28;20128;-62
2023/03/16 02:50:48;;;;;;;5.88;1.70;;;3.20;99.90;;;;;;4993296;28;20555;-64
2023/03/16 02:53:15;;;;;;;5.63;2.03;;;3.30;99.90;;;;;;4976906;28;20034;-62
2023/03/16 02:55:40;;;;;;;6.95;1.80;;;3.30;99.90;;;;;;4993847;28;20046;-62
2023/03/16 02:58:06;;;;;;;6.35;1.60;;;3.30;99.90;;;;;;5009966;28;20068;-63
2023/03/16 03:00:33;;;;;;;4.65;1.30;;;3.20;99.90;;;;;;4960174;28;20349;-62
2023/03/16 03:02:59;;;;;;;8.50;1.77;;;3.30;99.90;;;;;;5008871;28;20056;-63
2023/03/16 03:05:24;;;;;;;4.93;1.27;;;3.30;99.90;;;;;;4993523;28;20050;-63
2023/03/16 03:07:50;;;;;;;6.43;1.30;;;3.30;99.90;;;;;;4991333;28;20053;-64
2023/03/16 03:10:16;;;;;;;8.25;2.03;;;3.40;99.90;;;;;;4976989;28;20046;-62
2023/03/16 03:12:42;;;;;;;9.25;1.70;;;3.40;99.90;;;;;;4975647;28;20367;-63
2023/03/16 03:15:09;;;;;;;5.25;1.70;;;3.40;99.90;;;;;;4979650;28;20049;-62
2023/03/16 03:17:36;;;;;;;6.40;2.13;;;3.40;99.90;;;;;;4977806;28;20084;-65
2023/03/16 03:20:06;;;;;;;5.03;1.63;;;3.50;99.90;;;;;;4989174;28;20065;-62
2023/03/16 03:22:32;;;;;;;5.20;1.27;;;3.50;99.90;;;;;;5008407;28;20145;-63
2023/03/16 03:24:58;;;;;;;5.38;1.73;;;3.50;99.90;;;;;;4992742;28;20050;-62
2023/03/16 03:27:24;;;;;;;4.75;1.65;;;3.50;99.90;;;;;;4992859;28;20046;-63
2023/03/16 03:29:49;;;;;;;6.85;1.85;;;3.50;99.90;;;;;;4975602;28;20065;-64
2023/03/16 03:32:15;;;;;;;6.95;1.92;;;3.60;99.90;;;;;;4976941;28;20112;-62
2023/03/16 03:34:42;;;;;;;3.45;1.55;;;3.70;93.60;;;;;;4977283;28;20104;-63
2023/03/16 03:37:08;;;;;;;9.70;2.10;;;3.70;93.60;;;;;;4993493;28;20061;-62
2023/03/16 03:39:34;;;;;;;5.07;2.00;;;3.80;89.80;;;;;;4992340;28;20432;-63
2023/03/16 03:42:01;;;;;;;3.97;1.58;;;3.70;90.90;;;;;;5008287;28;20062;-63
2023/03/16 03:44:27;;;;;;;5.47;1.83;;;3.70;75.60;;;;;;4995607;28;20044;-63
2023/03/16 03:46:53;;;;;;;7.28;1.70;;;3.70;78.10;;;;;;4976374;28;20046;-62
2023/03/16 03:49:18;;;;;;;5.13;1.60;;;3.70;81.20;;;;;;4978070;28;20402;-63
2023/03/16 03:51:45;;;;;;;4.30;1.45;;;3.70;75.00;;;;;;4977354;28;20500;-63
2023/03/16 03:54:11;;;;;;;7.60;1.80;;;3.70;65.30;;;;;;4979268;28;20115;-63
2023/03/16 03:56:37;;;;;;;5.25;2.17;;;3.80;74.80;;;;;;4978356;28;20050;-61
2023/03/16 03:59:02;;;;;;;6.63;2.00;;;3.80;69.10;;;;;;4977914;28;20046;-62
2023/03/16 04:01:28;;;;;;;3.70;1.55;;;3.80;69.40;;;;;;4977166;28;20144;-62
2023/03/16 04:03:54;;;;;;;7.85;2.00;;;3.80;64.90;;;;;;4977289;28;20144;-63
2023/03/16 04:06:20;;;;;;;4.90;1.83;;;3.90;60.90;;;;;;4958675;28;20089;-62
2023/03/16 04:08:45;;;;;;;8.35;1.80;;;3.80;59.60;;;;;;4975977;28;20042;-62
2023/03/16 04:11:11;;;;;;;5.93;1.73;;;3.80;37.60;;;;;;4977142;28;20050;-64
2023/03/16 04:13:37;;;;;;;5.07;1.50;;;3.80;52.60;;;;;;4979393;28;20042;-63
2023/03/16 04:16:03;;;;;;;5.10;1.80;;;3.90;50.40;;;;;;4991814;28;20046;-62
2023/03/16 04:18:37;;;;;;;6.85;1.80;;;3.90;43.00;;;;;;4977535;28;20452;-63
2023/03/16 04:21:05;;;;;;;5.65;2.35;;;3.80;35.00;;;;;;4974138;28;20104;-63
2023/03/16 04:23:32;;;;;;;5.30;1.98;;;3.80;39.60;;;;;;4977739;28;20129;-63
2023/03/16 04:25:58;;;;;;;6.22;1.90;;;3.80;44.40;;;;;;4975881;28;20073;-63
2023/03/16 04:28:25;;;;;;;4.43;1.90;;;3.80;43.70;;;;;;5008153;28;20030;-63
2023/03/16 04:30:54;;;;;;;5.05;1.75;;;3.90;46.40;;;;;;4975184;28;20133;-63
2023/03/16 04:33:21;;;;;;;5.93;1.83;;;3.80;35.50;;;;;;4979469;28;20066;-63
2023/03/16 04:35:48;;;;;;;3.70;1.52;;;3.80;46.70;;;;;;5006378;28;20655;-63
2023/03/16 04:38:13;;;;;;;3.22;1.42;;;3.80;44.50;;;;;;4977481;28;20049;-62
2023/03/16 04:40:39;;;;;;;6.65;2.20;;;3.80;45.10;;;;;;5007016;28;20546;-62
2023/03/16 04:43:05;;;;;;;5.03;1.92;;;3.80;47.90;;;;;;4977979;28;20050;-63
2023/03/16 04:45:31;;;;;;;4.03;1.40;;;3.80;54.30;;;;;;4993069;28;20053;-62
2023/03/16 04:47:57;;;;;;;5.25;1.63;;;3.80;57.80;;;;;;4993599;28;20056;-62
2023/03/16 04:50:23;;;;;;;3.97;1.40;;;3.70;70.20;;;;;;4996249;28;20046;-63
2023/03/16 04:52:48;;;;;;;4.07;2.05;;;3.80;56.30;;;;;;4980323;28;20052;-62
2023/03/16 04:55:14;;;;;;;7.93;2.50;;;3.80;65.80;;;;;;4980462;28;20513;-63
2023/03/16 04:57:40;;;;;;;6.25;2.20;;;3.80;63.60;;;;;;5010564;28;20049;-63
2023/03/16 05:00:17;;;;;;;4.35;1.90;;;3.80;69.50;;;;;;4999029;28;20042;-62
2023/03/16 05:02:44;;;;;;;4.25;2.15;;;3.80;80.40;;;;;;4994602;28;20046;-62
2023/03/16 05:05:10;;;;;;;6.78;2.42;;;3.80;87.30;;;;;;5010290;28;20250;-62
2023/03/16 05:07:36;;;;;;;5.13;2.58;;;3.80;90.10;;;;;;4980986;28;20037;-62
2023/03/16 05:10:02;;;;;;;4.40;2.17;;;3.80;84.90;;;;;;4981438;28;20221;-63
2023/03/16 05:12:28;;;;;;;3.58;2.10;;;3.90;78.40;;;;;;4996460;28;20050;-63
2023/03/16 05:14:53;;;;;;;8.27;2.60;;;3.90;71.80;;;;;;4980031;28;20060;-63
2023/03/16 05:17:19;;;;;;;5.43;2.20;;;3.90;81.10;;;;;;4975715;28;20193;-63
2023/03/16 05:19:45;;;;;;;5.57;1.95;;;3.90;84.80;;;;;;4995510;28;20382;-62
2023/03/16 05:22:10;;;;;;;2.10;1.70;;;3.90;90.10;;;;;;4980820;28;20050;-62
2023/03/16 05:24:36;;;;;;;6.03;2.75;;;3.90;90.50;;;;;;5011280;28;21303;-62
2023/03/16 05:27:02;;;;;;;3.53;1.75;;;3.90;87.90;;;;;;4978609;28;20038;-63
2023/03/16 05:29:30;;;;;;;4.97;2.65;;;3.90;84.50;;;;;;4996343;28;20659;-62
2023/03/16 05:31:56;;;;;;;5.30;2.00;;;3.90;87.80;;;;;;4997366;28;20042;-62
2023/03/16 05:34:22;;;;;;;7.10;2.40;;;3.90;90.90;;;;;;5010499;28;20056;-62
2023/03/16 05:36:48;;;;;;;5.40;2.63;;;4.00;85.40;;;;;;4993870;28;20672;-64
2023/03/16 05:39:14;;;;;;;6.07;2.40;;;3.90;92.10;;;;;;4980111;28;20034;-64
2023/03/16 05:41:40;;;;;;;7.07;2.40;;;4.00;91.30;;;;;;4994421;28;20365;-64
2023/03/16 05:44:07;;;;;;;5.97;2.67;;;4.00;94.30;;;;;;4996179;28;20054;-62
2023/03/16 05:46:33;;;;;;;6.65;2.78;;;4.00;97.50;;;;;;4981430;28;20282;-62
2023/03/16 05:48:59;;;;;;;5.25;2.60;;;4.00;99.90;;;;;;5012348;28;20046;-63
2023/03/16 05:51:27;;;;;;;5.40;2.65;;;4.00;99.90;;;;;;4964327;28;20057;-62
2023/03/16 05:53:57;;;;;;;6.68;3.33;;;4.00;99.90;;;;;;5010251;28;20170;-63
2023/03/16 05:56:27;;;;;;;6.32;3.08;;;4.00;99.90;;;;;;4978886;28;20273;-62
2023/03/16 05:58:54;;;;;;;6.88;3.15;;;4.00;97.10;;;;;;5012085;28;20046;-63
2023/03/16 06:01:21;;;;;;;8.40;3.05;;;4.00;99.90;;;;;;4980061;28;20623;-64
2023/03/16 06:03:48;;;;;;;6.88;2.47;;;4.00;99.90;;;;;;5008785;28;20583;-63
2023/03/16 06:06:18;;;;;;;5.50;2.30;;;4.00;99.90;;;;;;5008008;28;20293;-64
2023/03/16 06:08:44;;;;;;;3.80;2.70;;;4.00;99.90;;;;;;4978656;28;20063;-64
2023/03/16 06:11:11;;;;;;;7.43;3.15;;;4.00;99.90;;;;;;4958064;28;20042;-63
2023/03/16 06:13:37;;;;;;;6.82;3.17;;;4.00;99.90;;;;;;4991984;28;20042;-64
2023/03/16 06:16:05;;;;;;;5.93;2.95;;;4.00;99.90;;;;;;4978471;28;20068;-65
2023/03/16 06:18:31;;;;;;;8.23;3.72;;;4.00;99.90;;;;;;5009173;28;20050;-64
2023/03/16 06:20:57;;;;;;;6.80;3.38;;;4.10;99.90;;;;;;4993003;28;20133;-63
2023/03/16 06:23:23;;;;;;;8.52;2.30;;;4.10;99.90;;;;;;5008981;28;20336;-63
2023/03/16 06:25:50;;;;;;;7.15;3.38;;;4.10;99.90;;;;;;4975980;28;20147;-64
2023/03/16 06:28:16;;;;;;;5.63;3.35;;;4.10;99.90;;;;;;4991842;28;20034;-64
2023/03/16 06:30:42;;;;;;;4.93;3.03;;;4.20;99.90;;;;;;4977019;28;20034;-64
2023/03/16 06:33:07;;;;;;;6.38;3.08;;;4.20;99.90;;;;;;5009633;28;20610;-64
2023/03/16 06:35:33;;;;;;;3.95;2.47;;;4.10;99.90;;;;;;4991999;28;20202;-64
2023/03/16 06:37:59;;;;;;;6.03;2.88;;;4.20;99.90;;;;;;4976141;28;20528;-65
2023/03/16 06:40:25;;;;;;;7.50;2.90;;;4.20;99.90;;;;;;4977307;28;20065;-64
2023/03/16 06:42:51;;;;;;;6.30;2.67;;;4.20;99.90;;;;;;5007038;28;20039;-65
2023/03/16 06:45:21;;;;;;;3.95;2.47;;;4.20;99.90;;;;;;4977012;28;20509;-65
2023/03/16 06:47:47;;;;;;;6.35;2.30;;;4.30;99.90;;;;;;4962952;28;20471;-63
2023/03/16 06:50:13;;;;;;;5.28;2.38;;;4.30;99.90;;;;;;4979483;28;20129;-63
2023/03/16 06:52:40;;;;;;;8.98;2.72;;;4.30;99.90;;;;;;4975206;28;20135;-66
2023/03/16 06:55:06;;;;;;;5.22;2.50;;;4.30;99.90;;;;;;5007286;28;20038;-63
2023/03/16 06:57:32;;;;;;;6.15;2.40;;;4.30;99.90;;;;;;4975760;28;20133;-64
2023/03/16 06:59:58;;;;;;;5.30;2.22;;;4.30;99.90;;;;;;4973151;28;20041;-64
2023/03/16 07:02:24;;;;;;;6.60;3.17;;;4.30;99.90;;;;;;4978625;28;20042;-64
2023/03/16 07:04:50;;;;;;;10.85;3.33;;;4.30;99.90;;;;;;4992922;28;20191;-64
2023/03/16 07:07:19;;;;;;;4.43;2.67;;;4.30;99.90;;;;;;4995495;28;20149;-65
2023/03/16 07:09:44;;;;;;;7.95;2.47;;;4.30;99.90;;;;;;4976012;28;20049;-64
2023/03/16 07:12:10;;;;;;;5.10;3.10;;;4.20;99.90;;;;;;4993876;28;20046;-63
2023/03/16 07:14:36;;;;;;;4.97;2.75;;;4.30;99.90;;;;;;4993327;28;20074;-64
2023/03/16 07:17:03;;;;;;;6.22;3.00;;;4.20;99.90;;;;;;4978376;28;20054;-64
2023/03/16 07:19:29;;;;;;;7.55;3.65;;;4.20;99.90;;;;;;4977588;28;20046;-64
2023/03/16 07:21:54;;;;;;;5.78;2.95;;;4.10;99.90;;;;;;4976337;28;20531;-64
2023/03/16 07:24:21;;;;;;;4.20;2.67;;;4.10;99.90;;;;;;4958307;28;20208;-64
2023/03/16 07:26:47;;;;;;;7.50;2.97;;;4.00;99.90;;;;;;4977758;28;20082;-63
2023/03/16 07:29:13;;;;;;;5.03;3.30;;;4.00;99.90;;;;;;4994467;28;20232;-64
2023/03/16 07:31:39;;;;;;;5.55;2.50;;;4.00;99.90;;;;;;4990801;28;20042;-64
2023/03/16 07:34:05;;;;;;;4.57;2.95;;;4.10;99.90;;;;;;4976795;28;20066;-64
2023/03/16 07:36:31;;;;;;;4.03;2.60;;;4.10;99.90;;;;;;4993099;28;20494;-64
2023/03/16 07:38:57;;;;;;;5.70;3.10;;;4.10;99.90;;;;;;4976080;28;20092;-64
2023/03/16 07:41:24;;;;;;;5.75;3.20;;;4.00;99.90;;;;;;4988783;28;20059;-63
2023/03/16 07:43:50;;;;;;;5.32;3.38;;;4.10;99.90;;;;;;4991595;28;20050;-64
2023/03/16 07:46:16;;;;;;;7.55;3.15;;;4.00;99.90;;;;;;4983362;28;20070;-65
2023/03/16 07:48:43;;;;;;;6.70;2.83;;;4.10;99.90;;;;;;4973274;28;20162;-64
2023/03/16 07:51:11;;;;;;;4.70;2.95;;;4.10;99.90;;;;;;5006141;28;20112;-65
2023/03/16 07:53:37;;;;;;;4.93;2.80;;;4.10;99.90;;;;;;4994551;28;20073;-65
2023/03/16 07:56:04;;;;;;;5.57;3.30;;;4.10;99.90;;;;;;5006208;28;20752;-64
2023/03/16 07:58:30;;;;;;;5.85;3.35;;;4.10;99.90;;;;;;4977858;28;20118;-65
2023/03/16 08:01:00;;;;;;;6.85;3.53;;;4.10;99.90;;;;;;4977058;28;20104;-63
2023/03/16 08:03:27;;;;;;;4.72;3.10;;;4.10;99.90;;;;;;4990674;28;20054;-64
2023/03/16 08:05:54;;;;;;;6.05;2.88;;;4.10;99.90;;;;;;4991473;28;20505;-64
2023/03/16 08:08:21;;;;;;;6.15;3.10;;;4.20;99.90;;;;;;4975396;28;20045;-65
2023/03/16 08:10:51;;;;;;;7.40;3.30;;;4.30;99.90;;;;;;5006170;28;20046;-64
2023/03/16 08:13:17;;;;;;;5.15;3.33;;;4.30;99.90;;;;;;4977323;28;20104;-64
2023/03/16 08:16:00;;;;;;;4.15;2.67;;;4.40;99.90;;;;;;4974102;28;20054;-64
2023/03/16 08:18:28;;;;;;;7.27;2.83;;;4.30;99.90;;;;;;4978634;28;20068;-63
2023/03/16 08:20:55;;;;;;;4.60;2.63;;;4.30;99.90;;;;;;4981383;28;20272;-64
2023/03/16 08:23:23;;;;;;;6.65;2.72;;;4.30;99.90;;;;;;4975716;28;20042;-63
2023/03/16 08:25:53;;;;;;;7.93;3.30;;;4.30;99.90;;;;;;4979484;28;20515;-64
2023/03/16 08:28:20;;;;;;;9.52;3.70;;;4.40;99.90;;;;;;4975325;28;20057;-65
2023/03/16 08:30:51;;;;;;;4.70;3.20;;;4.40;99.90;;;;;;4980232;28;20456;-65
2023/03/16 08:33:17;;;;;;;5.88;3.13;;;4.40;99.90;;;;;;4980788;28;20049;-64
2023/03/16 08:35:43;;;;;;;5.07;3.15;;;4.40;99.90;;;;;;5001317;28;20062;-63
2023/03/16 08:38:10;;;;;;;6.22;3.85;;;4.40;99.90;;;;;;4978263;28;20413;-63
2023/03/16 08:40:36;;;;;;;6.43;3.15;;;4.40;99.90;;;;;;4978728;28;20913;-63
2023/03/16 08:43:02;;;;;;;5.82;3.30;;;4.40;99.90;;;;;;4993739;28;20045;-63
2023/03/16 08:45:28;;;;;;;7.22;3.55;;;4.40;99.90;;;;;;4979591;28;20284;-64
2023/03/16 08:47:54;;;;;;;5.50;3.53;;;4.50;99.90;;;;;;4984067;28;20685;-64
2023/03/16 08:50:21;;;;;;;5.28;3.40;;;4.50;99.90;;;;;;5010237;28;20056;-63
2023/03/16 08:52:47;;;;;;;5.30;3.10;;;4.60;99.90;;;;;;4979123;28;20616;-65
2023/03/16 08:55:14;;;;;;;6.28;3.50;;;4.50;99.90;;;;;;4978229;28;20042;-64
2023/03/16 08:57:40;;;;;;;7.78;3.22;;;4.50;99.90;;;;;;5013851;28;20128;-62
2023/03/16 09:00:12;;;;;;;5.32;3.42;;;4.60;99.90;;;;;;4977447;28;20334;-64
2023/03/16 09:02:42;;;;;;;5.53;3.40;;;4.60;99.90;;;;;;5009260;28;20114;-63
2023/03/16 09:05:10;;;;;;;8.77;4.00;;;4.60;99.90;;;;;;4992207;28;20285;-64
2023/03/16 09:07:36;;;;;;;6.15;3.47;;;4.60;99.90;;;;;;4961740;28;20048;-64
2023/03/16 09:10:04;;;;;;;5.72;3.85;;;4.60;99.90;;;;;;5009945;28;20046;-64
2023/03/16 09:12:31;;;;;;;6.20;4.10;;;4.60;99.90;;;;;;5008885;28;20038;-64
2023/03/16 09:14:57;;;;;;;7.80;4.78;;;4.60;99.90;;;;;;4978946;28;20081;-64
2023/03/16 09:17:23;;;;;;;7.60;4.43;;;4.60;99.90;;;;;;4992664;28;20375;-64
2023/03/16 09:19:49;;;;;;;5.22;3.70;;;4.60;99.90;;;;;;4994177;28;20047;-64
2023/03/16 09:22:15;;;;;;;5.80;3.42;;;4.60;99.90;;;;;;4991486;28;20053;-64
2023/03/16 09:24:41;;;;;;;5.82;3.25;;;4.70;99.90;;;;;;4981677;28;20050;-64
2023/03/16 09:27:07;;;;;;;8.75;3.25;;;4.60;99.90;;;;;;4977365;28;20544;-65
2023/03/16 09:29:33;;;;;;;4.93;3.28;;;4.60;99.90;;;;;;4979149;28;20034;-62
2023/03/16 09:31:58;;;;;;;8.18;4.10;;;4.50;99.90;;;;;;4980172;28;20519;-61
2023/03/16 09:34:24;;;;;;;5.55;3.50;;;4.50;99.90;;;;;;5007473;28;20061;-63
2023/03/16 09:36:50;;;;;;;7.35;3.92;;;4.50;99.90;;;;;;4991243;28;20189;-62
2023/03/16 09:39:16;;;;;;;5.55;3.10;;;4.50;99.90;;;;;;4979800;28;20042;-65
2023/03/16 09:42:07;;;;;;;5.30;3.47;;;4.60;99.90;;;;;;4977067;28;20062;-64
2023/03/16 09:45:02;;;;;;;7.20;3.20;;;4.60;99.90;;;;;;4977964;28;20524;-64
2023/03/16 09:47:31;;;;;;;7.97;3.42;;;4.60;99.90;;;;;;4977335;28;20046;-64
2023/03/16 09:50:01;;;;;;;7.03;4.57;;;4.50;99.90;;;;;;5006607;28;20057;-64
2023/03/16 09:52:48;;;;;;;10.27;4.10;;;4.60;99.90;;;;;;4977347;28;20777;-64
2023/03/16 09:55:34;;;;;;;5.25;2.88;;;4.60;99.90;;;;;;4978976;28;20469;-64
2023/03/16 09:58:03;;;;;;;7.13;4.60;;;4.60;99.90;;;;;;4981593;28;20296;-66
2023/03/16 10:00:49;;;;;;;7.43;3.75;;;4.60;99.90;;;;;;4977369;28;20038;-64
2023/03/16 10:03:27;;;;;;;7.07;3.45;;;4.60;99.90;;;;;;4974980;28;20042;-63
2023/03/16 10:06:02;;;;;;;6.38;4.22;;;4.70;99.90;;;;;;4996774;28;20049;-64
2023/03/16 10:08:50;;;;;;;6.05;4.25;;;4.70;1.00;;;;;;4992700;28;20675;-63
2023/03/16 10:11:45;;;;;;;7.05;4.13;;;4.70;1.00;;;;;;4992254;28;20089;-64
2023/03/16 10:14:23;;;;;;;10.10;4.72;;;4.80;1.00;;;;;;5010267;28;20061;-64
2023/03/16 10:16:55;;;;;;;8.93;4.60;;;4.90;1.00;;;;;;4996339;28;20108;-63
2023/03/16 10:19:46;;;;;;;6.15;4.50;;;5.00;1.00;;;;;;4974674;28;20164;-64
2023/03/16 10:22:20;;;;;;;7.00;4.60;;;5.20;1.00;;;;;;5009064;28;20231;-64
2023/03/16 10:25:07;;;;;;;6.40;4.38;;;5.30;1.00;;;;;;4994854;28;20153;-63
2023/03/16 10:27:37;;;;;;;6.82;4.03;;;5.40;99.90;;;;;;4962081;28;20042;-64
2023/03/16 10:30:18;;;;;;;6.15;3.25;;;5.50;99.90;;;;;;4982275;28;20049;-64
2023/03/16 10:32:44;;;;;;;7.47;4.75;;;5.50;99.90;;;;;;4980366;28;20068;-64
2023/03/16 10:35:48;;;;;;;5.75;2.95;;;5.60;1.00;;;;;;4994213;28;20073;-66
2023/03/16 10:38:45;;;;;;;6.20;3.40;;;5.70;99.90;;;;;;4977251;28;20038;-64
2023/03/16 10:41:17;;;;;;;7.22;2.90;;;5.70;99.90;;;;;;4994501;28;20058;-64
2023/03/16 10:43:49;;;;;;;8.85;3.72;;;5.70;99.90;;;;;;4976005;28;20201;-63
2023/03/16 10:46:15;;;;;;;6.90;3.55;;;5.60;99.90;;;;;;4966168;28;20050;-64
2023/03/16 10:48:42;;;;;;;7.03;4.00;;;5.60;99.90;;;;;;4980490;28;20047;-63
2023/03/16 10:51:13;;;;;;;6.32;3.55;;;5.50;99.90;;;;;;4992290;28;20081;-65
2023/03/16 10:53:43;;;;;;;6.05;3.60;;;5.60;99.90;;;;;;4975607;28;20519;-64
2023/03/16 10:56:21;;;;;;;9.98;5.05;;;5.70;99.90;;;;;;4983813;28;20045;-62
2023/03/16 10:58:47;;;;;;;5.18;3.65;;;5.70;99.90;;;;;;4981109;28;20537;-62
2023/03/16 11:01:27;;;;;;;8.35;4.30;;;5.80;99.90;;;;;;4982825;28;20173;-63
2023/03/16 11:03:55;;;;;;;8.00;5.28;;;5.90;99.90;;;;;;4982167;28;20499;-64
2023/03/16 11:06:29;;;;;;;10.43;5.72;;;6.00;99.90;;;;;;4980549;28;20037;-63
2023/03/16 11:09:04;;;;;;;;;;;6.00;99.90;;;;;;4982384;28;20512;-63
2023/03/16 11:11:31;;;;;;;7.32;5.30;;;6.00;99.90;;;;;;4993059;28;19937;-62
2023/03/16 11:13:59;;;;;;;7.03;4.28;;;6.00;99.90;;;;;;5010411;28;20046;-63
2023/03/16 11:16:41;;;;;;;7.97;3.92;;;5.80;99.90;;;;;;4978952;28;20649;-62
2023/03/16 11:19:29;;;;;;;6.47;3.75;;;5.80;99.90;;;;;;4980448;28;20505;-63
2023/03/16 11:22:14;;;;;;;8.55;4.82;;;5.70;1.00;;;;;;4980186;28;20046;-63
2023/03/16 11:25:03;;;;;;;7.22;5.82;;;5.70;1.00;;;;;;4978540;28;20375;-62
2023/03/16 11:27:46;;;;;;;7.25;4.30;;;5.70;1.00;;;;;;4977768;28;20322;-63
2023/03/16 11:30:21;;;;;;;7.45;4.35;;;5.60;1.00;;;;;;4992770;28;20038;-62
2023/03/16 11:32:52;;;;;;;10.10;5.10;;;5.60;1.00;;;;;;5008883;28;20152;-61
2023/03/16 11:35:50;;;;;;;7.30;3.80;;;5.70;1.00;;;;;;4979813;28;20107;-62
2023/03/16 11:38:20;;;;;;;7.68;4.93;;;5.70;1.00;;;;;;4978501;28;20570;-63
2023/03/16 11:41:09;;;;;;;7.18;5.13;;;5.70;1.00;;;;;;4980437;28;20131;-62
2023/03/16 11:43:55;;;;;;;6.55;5.07;;;5.70;1.00;;;;;;4980922;28;20666;-65
2023/03/16 11:46:35;;;;;;;7.32;4.88;;;5.80;1.00;;;;;;5009991;28;20471;-63
2023/03/16 11:49:01;;;;;;;5.63;4.20;;;5.80;1.00;;;;;;4993147;28;20062;-62
2023/03/16 11:51:43;;;;;;;8.82;4.22;;;5.80;1.00;;;;;;4979816;28;20141;-63
2023/03/16 11:54:28;;;;;;;8.32;4.13;;;5.90;99.90;;;;;;4996931;28;20626;-62
2023/03/16 11:57:00;;;;;;;7.32;4.40;;;5.90;99.90;;;;;;4979926;28;20350;-62
2023/03/16 12:00:04;;;;;;;8.30;4.40;;;5.90;1.00;;;;;;4978159;28;20052;-62
2023/03/16 12:02:48;;;;;;;8.82;4.05;;;6.00;1.00;;;;;;5009621;28;20108;-62
2023/03/16 12:05:22;;;;;;;;;;;6.10;99.90;;;;;;4979689;28;20050;-63
2023/03/16 12:08:23;;;;;;;6.88;4.45;;;6.20;99.90;;;;;;4981028;28;19921;-62
2023/03/16 12:10:53;;;;;;;8.50;4.82;;;6.30;99.90;;;;;;4994436;28;20103;-63
2023/03/16 12:13:34;;;;;;;10.25;4.82;;;6.30;99.90;;;;;;4976688;28;20046;-62
2023/03/16 12:16:07;;;;;;;8.27;5.00;;;6.40;1.00;;;;;;5011544;28;20133;-61
2023/03/16 12:19:05;;;;;;;7.55;3.75;;;6.40;99.90;;;;;;4982046;28;20448;-62
2023/03/16 12:21:38;;;;;;;9.50;5.25;;;6.50;99.90;;;;;;4977647;28;20906;-63
2023/03/16 12:24:09;;;;;;;6.80;4.90;;;6.50;1.00;;;;;;4980574;28;20042;-62
2023/03/16 12:26:41;;;;;;;8.23;5.00;;;6.50;99.90;;;;;;5009538;28;20046;-63
2023/03/16 12:29:23;;;;;;;7.57;4.93;;;6.50;1.00;;;;;;4978286;28;20050;-62
2023/03/16 12:31:57;;;;;;;7.15;4.13;;;6.50;1.00;;;;;;4977351;28;20133;-62
2023/03/16 12:34:39;;;;;;;7.28;4.57;;;6.60;99.90;;;;;;5008521;28;20380;-63
2023/03/16 12:37:11;;;;;;;6.15;4.18;;;6.70;99.90;;;;;;4976057;28;20424;-62
2023/03/16 12:40:06;;;;;;;8.52;4.30;;;6.70;99.90;;;;;;4994480;28;20072;-62
2023/03/16 12:42:56;;;;;;;4.90;3.28;;;6.80;99.90;;;;;;4978113;28;20136;-64
2023/03/16 12:45:41;;;;;;;8.85;4.40;;;6.80;99.90;;;;;;4994422;28;20058;-62
2023/03/16 12:48:28;;;;;;;8.02;3.80;;;6.80;99.90;;;;;;4979092;28;21168;-62
2023/03/16 12:50:59;;;;;;;6.63;4.28;;;6.90;99.90;;;;;;4975392;28;20125;-62
2023/03/16 12:53:38;;;;;;;6.03;4.25;;;7.00;99.90;;;;;;4975379;28;20148;-62
2023/03/16 12:56:08;;;;;;;5.97;3.63;;;7.20;99.90;;;;;;4984323;28;20045;-62
2023/03/16 12:58:35;;;;;;;4.50;3.42;;;7.40;99.90;;;;;;5005828;28;20050;-62
2023/03/16 13:01:06;;;;;;;6.65;3.67;;;7.40;99.90;;;;;;4990293;28;20558;-63
2023/03/16 13:03:33;;;;;;;4.22;3.33;;;7.50;99.90;;;;;;4975771;28;20261;-63
2023/03/16 13:05:59;;;;;;;7.10;4.15;;;7.60;99.90;;;;;;4973623;28;20801;-63
2023/03/16 13:08:27;;;;;;;6.97;3.85;;;7.60;99.90;;;;;;4974974;28;20042;-62
2023/03/16 13:11:08;;;;;;;6.13;4.13;;;7.80;99.90;;;;;;4976123;28;20049;-62
2023/03/16 13:13:46;;;;;;;6.90;3.88;;;7.70;99.90;;;;;;4978593;28;20058;-62